createdAt,value
2023-03-25T00:01:41.585Z,4.28
2023-03-25T00:04:08.826Z,4.28
2023-03-25T00:06:35.794Z,4.24
2023-03-25T00:09:04.341Z,4.06
2023-03-25T00:11:31.757Z,4.17
2023-03-25T00:13:58.858Z,4.04
2023-03-25T00:16:25.962Z,3.95
2023-03-25T00:18:53.432Z,3.99
2023-03-25T00:21:21.096Z,3.90
2023-03-25T00:23:48.091Z,3.91
2023-03-25T00:26:15.126Z,3.95
2023-03-25T00:28:42.243Z,3.81
2023-03-25T00:31:12.560Z,3.95
2023-03-25T00:33:41.932Z,4.06
2023-03-25T00:36:10.019Z,3.78
2023-03-25T00:38:38.205Z,4.01
2023-03-25T00:41:26.132Z,3.92
2023-03-25T00:43:55.739Z,4.04
2023-03-25T00:46:24.883Z,4.05
2023-03-25T00:48:52.721Z,3.94
2023-03-25T00:51:21.967Z,3.96
2023-03-25T00:53:54.979Z,4.05
2023-03-25T00:56:25.559Z,4.02
2023-03-25T00:58:52.904Z,4.10
2023-03-25T01:01:28.982Z,4.15
2023-03-25T01:03:59.415Z,4.21
2023-03-25T01:06:29.801Z,4.13
2023-03-25T01:08:58.738Z,4.18
2023-03-25T01:11:28.733Z,4.23
2023-03-25T01:13:57.273Z,4.10
2023-03-25T01:16:24.465Z,4.20
2023-03-25T01:18:51.658Z,4.00
2023-03-25T01:21:19.203Z,4.09
2023-03-25T01:23:46.646Z,4.20
2023-03-25T01:26:13.746Z,4.18
2023-03-25T01:28:42.224Z,4.03
2023-03-25T01:31:12.496Z,4.21
2023-03-25T01:33:39.748Z,4.20
2023-03-25T01:36:13.135Z,4.11
2023-03-25T01:38:42.119Z,4.26
2023-03-25T01:41:10.878Z,4.27
2023-03-25T01:43:37.949Z,4.24
2023-03-25T01:46:05.220Z,4.26
2023-03-25T01:48:38.760Z,4.34
2023-03-25T01:51:19.436Z,4.40
2023-03-25T01:53:47.941Z,4.42
2023-03-25T01:56:19.762Z,4.54
2023-03-25T01:58:48.360Z,4.48
2023-03-25T02:01:17.172Z,4.43
2023-03-25T02:03:51.039Z,4.56
2023-03-25T02:06:32.040Z,4.53
2023-03-25T02:09:02.393Z,4.59
2023-03-25T02:11:29.846Z,4.68
2023-03-25T02:14:03.034Z,4.70
2023-03-25T02:16:49.418Z,4.68
2023-03-25T02:19:35.687Z,4.71
2023-03-25T02:22:18.161Z,4.75
2023-03-25T02:24:54.198Z,4.71
2023-03-25T02:27:42.143Z,4.78
2023-03-25T02:30:32.502Z,4.70
2023-03-25T02:33:31.265Z,4.77
2023-03-25T02:36:07.270Z,4.83
2023-03-25T02:39:01.533Z,4.77
2023-03-25T02:41:33.326Z,4.82
2023-03-25T02:44:09.116Z,4.65
2023-03-25T02:46:40.589Z,4.67
2023-03-25T02:49:25.920Z,4.76
2023-03-25T02:51:58.785Z,4.83
2023-03-25T02:54:29.311Z,4.80
2023-03-25T02:56:59.181Z,4.87
2023-03-25T02:59:30.287Z,4.84
2023-03-25T03:02:00.802Z,4.78
2023-03-25T03:04:28.372Z,4.62
2023-03-25T03:06:58.103Z,4.58
2023-03-25T03:09:45.173Z,4.70
2023-03-25T03:12:19.164Z,4.70
2023-03-25T03:14:51.998Z,4.78
2023-03-25T03:17:51.716Z,4.78
2023-03-25T03:20:34.621Z,4.78
2023-03-25T03:23:37.251Z,4.77
2023-03-25T03:26:13.209Z,4.73
2023-03-25T03:28:50.625Z,4.99
2023-03-25T03:31:48.620Z,5.05
2023-03-25T03:34:36.687Z,5.06
2023-03-25T03:37:06.059Z,5.09
2023-03-25T03:39:38.346Z,5.09
2023-03-25T03:42:19.013Z,5.16
2023-03-25T03:44:51.822Z,5.17
2023-03-25T03:47:24.217Z,5.04
2023-03-25T03:49:55.277Z,5.30
2023-03-25T03:52:38.001Z,5.29
2023-03-25T03:55:14.236Z,5.40
2023-03-25T03:57:47.420Z,5.45
2023-03-25T04:00:24.162Z,5.45
2023-03-25T04:02:54.969Z,5.72
2023-03-25T04:05:23.763Z,5.39
2023-03-25T04:08:03.846Z,5.35
2023-03-25T04:10:39.531Z,5.73
2023-03-25T04:13:11.638Z,5.65
2023-03-25T04:15:38.831Z,5.77
2023-03-25T04:18:06.038Z,5.89
2023-03-25T04:20:36.650Z,5.94
2023-03-25T04:23:05.176Z,6.05
2023-03-25T04:25:37.386Z,6.01
2023-03-25T04:28:21.183Z,6.18
2023-03-25T04:31:02.792Z,5.71
2023-03-25T04:33:33.759Z,5.41
2023-03-25T04:36:15.601Z,5.44
2023-03-25T04:38:45.997Z,5.78
2023-03-25T04:41:14.142Z,5.92
2023-03-25T04:43:45.396Z,6.42
2023-03-25T04:46:17.487Z,5.99
2023-03-25T04:48:45.626Z,6.46
2023-03-25T04:51:13.886Z,6.32
2023-03-25T04:53:49.435Z,6.19
2023-03-25T04:56:22.938Z,6.55
2023-03-25T04:58:50.524Z,6.04
2023-03-25T05:01:35.785Z,6.67
2023-03-25T05:04:19.902Z,5.90
2023-03-25T05:06:50.676Z,6.71
2023-03-25T05:09:22.334Z,6.32
2023-03-25T05:11:54.250Z,6.37
2023-03-25T05:14:23.320Z,5.91
2023-03-25T05:16:51.363Z,6.70
2023-03-25T05:19:25.866Z,6.45
2023-03-25T05:21:57.759Z,6.49
2023-03-25T05:24:28.632Z,6.20
2023-03-25T05:27:02.554Z,5.97
2023-03-25T05:29:34.067Z,6.58
2023-03-25T05:32:01.432Z,6.68
2023-03-25T05:34:31.818Z,6.62
2023-03-25T05:36:58.952Z,7.04
2023-03-25T05:39:30.643Z,6.31
2023-03-25T05:42:05.084Z,6.69
2023-03-25T05:44:35.603Z,6.57
2023-03-25T05:47:09.166Z,7.11
2023-03-25T05:49:38.099Z,7.19
2023-03-25T05:52:05.462Z,7.21
2023-03-25T05:54:41.863Z,7.39
2023-03-25T05:57:14.628Z,7.58
2023-03-25T05:59:45.709Z,7.24
2023-03-25T06:02:20.821Z,7.27
2023-03-25T06:04:51.537Z,7.14
2023-03-25T06:07:22.521Z,7.48
2023-03-25T06:09:56.199Z,7.26
2023-03-25T06:12:29.991Z,7.54
2023-03-25T06:15:14.708Z,6.98
2023-03-25T06:17:56.372Z,7.41
2023-03-25T06:20:38.339Z,7.12
2023-03-25T06:23:18.159Z,7.16
2023-03-25T06:25:50.549Z,7.94
2023-03-25T06:28:19.524Z,7.81
2023-03-25T06:30:50.080Z,7.24
2023-03-25T06:33:43.018Z,7.60
2023-03-25T06:36:30.608Z,7.51
2023-03-25T06:39:03.525Z,8.30
2023-03-25T06:41:41.692Z,7.88
2023-03-25T06:44:24.696Z,8.01
2023-03-25T06:47:22.750Z,7.84
2023-03-25T06:49:56.470Z,8.72
2023-03-25T06:52:36.767Z,8.38
2023-03-25T06:55:22.299Z,8.36
2023-03-25T06:57:56.911Z,8.68
2023-03-25T07:00:27.742Z,8.67
2023-03-25T07:02:55.765Z,8.83
2023-03-25T07:05:22.871Z,8.65
2023-03-25T07:07:50.606Z,8.87
2023-03-25T07:10:20.688Z,8.82
2023-03-25T07:12:47.820Z,8.97
2023-03-25T07:15:17.908Z,8.88
2023-03-25T07:17:49.539Z,8.83
2023-03-25T07:20:17.347Z,8.87
2023-03-25T07:22:44.823Z,8.85
2023-03-25T07:25:11.921Z,8.75
2023-03-25T07:27:41.548Z,8.48
2023-03-25T07:30:13.887Z,8.67
2023-03-25T07:32:41.323Z,8.71
2023-03-25T07:35:10.243Z,8.75
2023-03-25T07:37:37.525Z,8.80
2023-03-25T07:40:11.031Z,8.33
2023-03-25T07:42:41.849Z,8.20
2023-03-25T07:45:24.341Z,8.31
2023-03-25T07:47:58.178Z,8.80
2023-03-25T07:50:27.748Z,8.32
2023-03-25T07:52:54.941Z,8.90
2023-03-25T07:55:45.127Z,8.49
2023-03-25T07:58:28.570Z,8.56
2023-03-25T08:01:25.531Z,8.56
2023-03-25T08:04:02.000Z,8.27
2023-03-25T08:07:13.199Z,8.94
2023-03-25T08:10:56.630Z,8.92
2023-03-25T08:13:25.579Z,8.83
2023-03-25T08:15:57.930Z,8.71
2023-03-25T08:18:25.968Z,8.38
2023-03-25T08:20:55.815Z,8.59
2023-03-25T08:23:23.607Z,8.86
2023-03-25T08:25:51.709Z,8.77
2023-03-25T08:28:27.151Z,8.36
2023-03-25T08:30:59.430Z,8.29
2023-03-25T08:33:41.193Z,7.97
2023-03-25T08:36:14.577Z,8.74
2023-03-25T08:38:45.623Z,8.22
2023-03-25T08:41:17.264Z,8.49
2023-03-25T08:43:55.268Z,8.23
2023-03-25T08:46:27.876Z,8.43
2023-03-25T08:49:04.045Z,7.88
2023-03-25T08:51:43.517Z,7.48
2023-03-25T08:54:30.060Z,7.99
2023-03-25T08:57:02.572Z,7.89
2023-03-25T08:59:36.312Z,7.28
2023-03-25T09:02:03.810Z,7.57
2023-03-25T09:04:41.893Z,7.49
2023-03-25T09:07:12.630Z,7.37
2023-03-25T09:09:43.112Z,7.94
2023-03-25T09:12:10.264Z,8.13
2023-03-25T09:14:37.663Z,8.12
2023-03-25T09:17:06.581Z,8.08
2023-03-25T09:19:38.227Z,8.18
2023-03-25T09:22:06.407Z,8.16
2023-03-25T09:24:34.363Z,8.16
2023-03-25T09:27:03.177Z,8.21
2023-03-25T09:29:30.507Z,8.02
2023-03-25T09:32:01.164Z,8.19
2023-03-25T09:34:28.570Z,8.27
2023-03-25T09:36:56.041Z,8.24
2023-03-25T09:39:23.184Z,8.31
2023-03-25T09:42:05.156Z,8.43
2023-03-25T09:44:46.107Z,8.39
2023-03-25T09:47:15.982Z,8.33
2023-03-25T09:49:47.006Z,8.41
2023-03-25T09:52:21.541Z,8.46
2023-03-25T09:54:59.908Z,8.30
2023-03-25T09:57:33.493Z,8.36
2023-03-25T10:00:04.248Z,8.50
2023-03-25T10:02:54.099Z,8.54
2023-03-25T10:05:37.617Z,8.42
2023-03-25T10:08:17.142Z,8.61
2023-03-25T10:10:51.434Z,8.64
2023-03-25T10:13:20.005Z,8.71
2023-03-25T10:15:53.539Z,8.78
2023-03-25T10:18:42.004Z,8.86
2023-03-25T10:21:23.895Z,8.96
2023-03-25T10:23:53.521Z,8.98
2023-03-25T10:26:30.820Z,9.12
2023-03-25T10:29:06.776Z,9.24
2023-03-25T10:31:40.508Z,9.29
2023-03-25T10:34:15.627Z,9.25
2023-03-25T10:36:52.163Z,9.63
2023-03-25T10:39:21.259Z,9.62
2023-03-25T10:41:55.392Z,9.69
2023-03-25T10:44:25.909Z,9.66
2023-03-25T10:47:12.704Z,9.62
2023-03-25T10:49:42.089Z,9.51
2023-03-25T10:52:10.021Z,9.49
2023-03-25T10:54:41.571Z,9.63
2023-03-25T10:57:11.301Z,9.59
2023-03-25T10:59:49.853Z,9.61
2023-03-25T11:02:22.931Z,9.64
2023-03-25T11:04:56.386Z,9.59
2023-03-25T11:07:30.396Z,9.60
2023-03-25T11:10:13.752Z,9.62
2023-03-25T11:12:47.769Z,9.40
2023-03-25T11:15:17.516Z,9.53
2023-03-25T11:17:47.412Z,9.72
2023-03-25T11:20:21.926Z,9.50
2023-03-25T11:22:53.434Z,9.65
2023-03-25T11:25:33.100Z,9.62
2023-03-25T11:28:05.493Z,9.56
2023-03-25T11:30:32.565Z,9.41
2023-03-25T11:33:13.283Z,9.47
2023-03-25T11:35:46.862Z,9.39
2023-03-25T11:38:23.240Z,9.48
2023-03-25T11:40:55.538Z,9.44
2023-03-25T11:43:36.988Z,9.02
2023-03-25T11:46:16.286Z,9.52
2023-03-25T11:48:48.047Z,9.65
2023-03-25T11:51:35.185Z,9.22
2023-03-25T11:54:13.996Z,9.01
2023-03-25T11:56:49.552Z,9.16
2023-03-25T11:59:27.531Z,9.71
2023-03-25T12:02:20.006Z,8.83
2023-03-25T12:05:04.282Z,9.66
2023-03-25T12:07:46.217Z,9.64
2023-03-25T12:11:00.777Z,9.73
2023-03-25T12:13:36.748Z,9.69
2023-03-25T12:16:31.807Z,9.65
2023-03-25T12:19:11.067Z,9.71
2023-03-25T12:21:44.020Z,9.73
2023-03-25T12:24:28.616Z,9.68
2023-03-25T12:27:11.366Z,9.81
2023-03-25T12:29:48.785Z,9.78
2023-03-25T12:32:35.255Z,9.74
2023-03-25T12:35:08.744Z,9.74
2023-03-25T12:37:57.102Z,9.66
2023-03-25T12:41:16.703Z,9.65
2023-03-25T12:44:09.956Z,9.58
2023-03-25T12:46:55.168Z,9.58
2023-03-25T12:49:50.909Z,9.49
2023-03-25T12:52:36.588Z,9.42
2023-03-25T12:55:22.117Z,9.17
2023-03-25T12:57:59.473Z,9.43
2023-03-25T13:00:37.716Z,9.47
2023-03-25T13:03:29.543Z,9.29
2023-03-25T13:06:18.641Z,9.44
2023-03-25T13:08:59.225Z,9.46
2023-03-25T13:11:45.803Z,9.47
2023-03-25T13:14:21.976Z,8.59
2023-03-25T13:16:53.048Z,9.32
2023-03-25T13:19:24.447Z,9.10
2023-03-25T13:21:56.475Z,9.25
2023-03-25T13:24:33.238Z,9.04
2023-03-25T13:27:02.141Z,9.32
2023-03-25T13:29:43.760Z,9.03
2023-03-25T13:32:35.132Z,9.39
2023-03-25T13:35:33.643Z,9.41
2023-03-25T13:38:04.870Z,9.38
2023-03-25T13:40:41.785Z,9.46
2023-03-25T13:43:26.668Z,9.34
2023-03-25T13:46:14.154Z,9.56
2023-03-25T13:48:58.845Z,9.62
2023-03-25T13:51:25.882Z,9.52
2023-03-25T13:54:05.514Z,9.16
2023-03-25T13:56:49.142Z,8.90
2023-03-25T13:59:56.459Z,9.62
2023-03-25T14:03:08.052Z,9.61
2023-03-25T14:06:06.761Z,9.57
2023-03-25T14:08:59.142Z,9.63
2023-03-25T14:11:52.087Z,9.62
2023-03-25T14:14:29.394Z,9.06
2023-03-25T14:17:06.062Z,9.03
2023-03-25T14:19:45.253Z,9.17
2023-03-25T14:22:25.464Z,9.13
2023-03-25T14:24:59.040Z,8.80
2023-03-25T14:27:55.974Z,9.44
2023-03-25T14:30:32.770Z,9.25
2023-03-25T14:33:03.253Z,9.09
2023-03-25T14:35:56.713Z,9.69
2023-03-25T14:38:51.053Z,9.71
2023-03-25T14:42:00.435Z,9.43
2023-03-25T14:44:42.319Z,8.88
2023-03-25T14:47:20.525Z,9.64
2023-03-25T14:50:05.109Z,9.57
2023-03-25T14:52:52.895Z,8.82
2023-03-25T14:55:36.476Z,9.01
2023-03-25T14:58:36.029Z,8.68
2023-03-25T15:01:16.287Z,9.27
2023-03-25T15:04:07.726Z,9.70
2023-03-25T15:06:49.471Z,9.64
2023-03-25T15:09:24.392Z,9.51
2023-03-25T15:12:16.861Z,8.80
2023-03-25T15:19:21.724Z,9.60
2023-03-25T15:22:42.860Z,9.47
2023-03-25T15:25:40.178Z,9.33
2023-03-25T15:28:31.197Z,8.68
2023-03-25T15:31:14.219Z,9.48
2023-03-25T15:33:59.646Z,9.46
2023-03-25T15:37:10.608Z,9.14
2023-03-25T15:40:37.386Z,9.40
2023-03-25T15:44:00.217Z,9.39
2023-03-25T15:46:55.006Z,9.38
2023-03-25T15:49:49.694Z,9.37
2023-03-25T15:52:53.018Z,9.37
2023-03-25T15:55:44.915Z,9.14
2023-03-25T15:58:28.998Z,8.48
2023-03-25T16:01:37.347Z,9.25
2023-03-25T16:04:28.979Z,9.23
2023-03-25T16:06:59.621Z,9.10
2023-03-25T16:09:30.000Z,9.22
2023-03-25T16:12:01.180Z,9.22
2023-03-25T16:14:38.874Z,9.24
2023-03-25T16:17:08.054Z,9.22
2023-03-25T16:19:42.946Z,9.17
2023-03-25T16:22:30.116Z,9.16
2023-03-25T16:25:00.099Z,8.94
2023-03-25T16:27:33.952Z,9.09
2023-03-25T16:30:01.062Z,9.06
2023-03-25T16:32:34.826Z,8.80
2023-03-25T16:35:02.796Z,9.06
2023-03-25T16:37:34.133Z,9.05
2023-03-25T16:40:06.928Z,9.01
2023-03-25T16:42:35.589Z,8.99
2023-03-25T16:45:07.484Z,8.81
2023-03-25T16:47:34.914Z,8.91
2023-03-25T16:50:02.890Z,8.69
2023-03-25T16:52:34.193Z,8.93
2023-03-25T16:55:01.232Z,8.85
2023-03-25T16:57:33.136Z,8.60
2023-03-25T17:00:17.587Z,8.56
2023-03-25T17:02:48.630Z,8.80
2023-03-25T17:05:26.298Z,8.80
2023-03-25T17:08:07.303Z,8.79
2023-03-25T17:10:49.702Z,8.69
2023-03-25T17:13:28.578Z,8.72
2023-03-25T17:15:55.792Z,8.59
2023-03-25T17:18:29.076Z,8.74
2023-03-25T17:21:00.254Z,8.56
2023-03-25T17:23:36.249Z,8.61
2023-03-25T17:26:08.925Z,8.59
2023-03-25T17:29:02.041Z,8.66
2023-03-25T17:31:38.366Z,8.53
2023-03-25T17:34:08.224Z,8.62
2023-03-25T17:36:38.011Z,8.51
2023-03-25T17:43:32.292Z,8.10
2023-03-25T17:49:46.915Z,7.72
2023-03-25T17:52:39.472Z,8.32
2023-03-25T17:55:07.350Z,8.29
2023-03-25T17:57:36.388Z,8.53
2023-03-25T18:00:12.422Z,8.47
2023-03-25T18:02:41.109Z,8.60
2023-03-25T18:05:08.947Z,8.62
2023-03-25T18:07:36.439Z,8.51
2023-03-25T18:10:12.956Z,8.61
2023-03-25T18:12:39.928Z,8.67
2023-03-25T18:15:07.621Z,8.72
2023-03-25T18:17:34.661Z,8.44
2023-03-25T18:20:01.950Z,8.56
2023-03-25T18:22:30.448Z,8.66
2023-03-25T18:24:58.103Z,8.67
2023-03-25T18:27:33.272Z,8.46
2023-03-25T18:30:19.341Z,8.49
2023-03-25T18:32:46.456Z,8.49
2023-03-25T18:35:13.498Z,8.48
2023-03-25T18:37:41.786Z,8.66
2023-03-25T18:40:35.736Z,8.67
2023-03-25T18:43:04.479Z,8.57
2023-03-25T18:45:32.087Z,8.65
2023-03-25T18:47:59.303Z,8.57
2023-03-25T18:50:37.839Z,8.58
2023-03-25T18:53:06.479Z,8.51
2023-03-25T18:55:35.973Z,8.57
2023-03-25T18:58:04.596Z,8.62
2023-03-25T19:00:39.740Z,8.59
2023-03-25T19:03:06.944Z,8.48
2023-03-25T19:05:34.129Z,8.45
2023-03-25T19:08:01.382Z,8.07
2023-03-25T19:10:31.626Z,8.62
2023-03-25T19:13:00.010Z,8.51
2023-03-25T19:15:29.437Z,8.42
2023-03-25T19:18:03.841Z,8.52
2023-03-25T19:20:35.543Z,8.55
2023-03-25T19:23:04.507Z,8.48
2023-03-25T19:25:31.653Z,8.45
2023-03-25T19:27:58.726Z,8.38
2023-03-25T19:30:25.807Z,8.25
2023-03-25T19:33:01.920Z,8.40
2023-03-25T19:35:29.286Z,8.33
2023-03-25T19:37:57.167Z,8.35
2023-03-25T19:40:26.843Z,8.33
2023-03-25T19:42:56.655Z,8.29
2023-03-25T19:45:24.826Z,8.28
2023-03-25T19:47:52.732Z,8.21
2023-03-25T19:50:22.650Z,8.19
2023-03-25T19:52:52.196Z,8.19
2023-03-25T19:55:21.330Z,8.17
2023-03-25T19:57:49.402Z,8.06
2023-03-25T20:00:21.903Z,8.19
2023-03-25T20:02:53.532Z,8.22
2023-03-25T20:05:22.345Z,8.14
2023-03-25T20:07:51.268Z,8.13
2023-03-25T20:10:24.110Z,8.13
2023-03-25T20:12:51.312Z,7.96
2023-03-25T20:15:19.867Z,8.12
2023-03-25T20:17:53.850Z,7.98
2023-03-25T20:20:22.170Z,8.12
2023-03-25T20:22:49.165Z,7.91
2023-03-25T20:25:16.838Z,7.97
2023-03-25T20:27:44.220Z,8.05
2023-03-25T20:30:14.667Z,8.10
2023-03-25T20:32:46.567Z,8.12
2023-03-25T20:35:16.597Z,8.13
2023-03-25T20:37:45.101Z,8.12
2023-03-25T20:40:15.605Z,8.16
2023-03-25T20:42:44.868Z,8.12
2023-03-25T20:45:14.071Z,8.09
2023-03-25T20:47:41.955Z,8.07
2023-03-25T20:50:11.474Z,8.09
2023-03-25T20:52:41.659Z,8.03
2023-03-25T20:55:10.150Z,7.96
2023-03-25T20:57:38.409Z,8.00
2023-03-25T21:00:06.592Z,7.97
2023-03-25T21:02:34.033Z,8.06
2023-03-25T21:05:03.301Z,7.99
2023-03-25T21:07:32.092Z,7.94
2023-03-25T21:09:59.699Z,7.75
2023-03-25T21:12:40.678Z,8.03
2023-03-25T21:15:10.787Z,7.87
2023-03-25T21:17:38.057Z,7.91
2023-03-25T21:20:08.453Z,8.03
2023-03-25T21:22:42.944Z,8.00
2023-03-25T21:25:11.255Z,7.76
2023-03-25T21:27:40.191Z,8.01
2023-03-25T21:30:12.072Z,7.96
2023-03-25T21:32:39.469Z,8.06
2023-03-25T21:35:08.132Z,7.82
2023-03-25T21:37:38.702Z,8.07
2023-03-25T21:40:08.478Z,8.07
2023-03-25T21:42:38.533Z,8.07
2023-03-25T21:45:08.207Z,8.07
2023-03-25T21:47:36.715Z,7.93
2023-03-25T21:50:06.167Z,7.91
2023-03-25T21:52:34.051Z,7.88
2023-03-25T21:55:01.634Z,7.93
2023-03-25T21:57:30.741Z,8.03
2023-03-25T21:59:57.672Z,7.91
2023-03-25T22:02:25.769Z,7.95
2023-03-25T22:04:52.816Z,7.80
2023-03-25T22:07:19.797Z,7.91
2023-03-25T22:09:48.331Z,7.84
2023-03-25T22:12:15.224Z,7.64
2023-03-25T22:14:42.148Z,7.65
2023-03-25T22:17:09.151Z,7.82
2023-03-25T22:19:36.136Z,7.82
2023-03-25T22:22:03.730Z,7.80
2023-03-25T22:24:31.355Z,7.67
2023-03-25T22:26:58.375Z,7.69
2023-03-25T22:29:25.728Z,7.73
2023-03-25T22:31:55.782Z,7.74
2023-03-25T22:34:22.876Z,7.64
2023-03-25T22:36:50.837Z,7.68
2023-03-25T22:39:19.663Z,7.47
2023-03-25T22:41:46.935Z,7.64
2023-03-25T22:44:17.094Z,7.64
2023-03-25T22:46:44.997Z,7.68
2023-03-25T22:49:13.261Z,7.62
2023-03-25T22:51:40.499Z,7.53
2023-03-25T22:54:09.951Z,7.56
2023-03-25T22:56:37.707Z,7.50
2023-03-25T22:59:07.466Z,7.58
2023-03-25T23:01:36.196Z,7.35
2023-03-25T23:04:03.822Z,7.51
2023-03-25T23:06:33.115Z,7.52
2023-03-25T23:09:00.109Z,7.28
2023-03-25T23:11:29.274Z,7.54
2023-03-25T23:13:59.672Z,7.44
2023-03-25T23:16:27.997Z,7.54
2023-03-25T23:18:55.135Z,7.32
2023-03-25T23:21:25.658Z,7.35
2023-03-25T23:23:54.000Z,7.47
2023-03-25T23:26:25.013Z,7.43
2023-03-25T23:28:53.723Z,7.21
2023-03-25T23:31:28.474Z,7.22
2023-03-25T23:34:00.581Z,7.27
2023-03-25T23:36:28.572Z,7.18
2023-03-25T23:38:55.806Z,7.02
2023-03-25T23:41:23.369Z,7.26
2023-03-25T23:43:51.462Z,7.26
2023-03-25T23:46:21.389Z,7.31
2023-03-25T23:48:48.996Z,7.25
2023-03-25T23:51:20.332Z,7.22
2023-03-25T23:53:49.312Z,7.24
2023-03-25T23:56:18.068Z,7.29
2023-03-25T23:58:45.600Z,7.25
